Time;durP1;ratioP1;P1;durP2;ratioP2;P2;SDS_P1;SDS_P2;PMS_P1;PMS_P2;Temp;Humidity;BMP_temperature;BMP_pressure;BME280_temperature;BME280_humidity;BME280_pressure;Samples;Min_cycle;Max_cycle;Signal;HPM_P1;HPM_P2
2023/05/24 00:02:44;;;;;;;18.02;6.07;;;10.40;99.90;;;;;;5013603;28;20037;-49
2023/05/24 00:05:30;;;;;;;15.68;5.60;;;10.30;99.90;;;;;;5013738;28;20502;-52
2023/05/24 00:08:16;;;;;;;16.63;5.70;;;10.30;99.90;;;;;;5014678;28;20034;-49
2023/05/24 00:11:02;;;;;;;13.20;5.00;;;10.10;99.90;;;;;;5015809;28;20058;-49
2023/05/24 00:13:48;;;;;;;12.77;5.20;;;10.20;99.90;;;;;;5017683;28;20018;-50
2023/05/24 00:16:35;;;;;;;14.85;5.28;;;10.00;99.90;;;;;;5013925;28;20402;-50
2023/05/24 00:19:21;;;;;;;17.50;5.75;;;10.00;99.90;;;;;;5014945;28;20030;-52
2023/05/24 00:22:07;;;;;;;16.60;5.78;;;10.10;99.90;;;;;;5012536;28;20030;-53
2023/05/24 00:24:52;;;;;;;15.75;5.22;;;10.10;99.90;;;;;;5012383;28;20034;-49
2023/05/24 00:27:38;;;;;;;14.38;5.13;;;10.00;99.90;;;;;;5011932;28;20034;-50
2023/05/24 00:30:25;;;;;;;19.98;4.68;;;10.00;99.90;;;;;;5013668;28;20027;-49
2023/05/24 00:33:11;;;;;;;15.70;6.03;;;10.00;99.90;;;;;;5013408;28;20022;-52
2023/05/24 00:35:57;;;;;;;16.75;5.00;;;10.00;99.90;;;;;;5013294;28;20022;-53
2023/05/24 00:38:43;;;;;;;24.08;6.00;;;10.00;99.90;;;;;;5012174;28;20116;-51
2023/05/24 00:41:29;;;;;;;20.25;5.20;;;9.90;99.90;;;;;;5014469;28;20117;-51
2023/05/24 00:44:15;;;;;;;16.30;5.93;;;9.80;99.90;;;;;;5013636;28;20065;-50
2023/05/24 00:47:01;;;;;;;14.48;4.93;;;9.80;99.90;;;;;;5013486;28;20037;-48
2023/05/24 00:49:47;;;;;;;18.83;5.45;;;9.80;99.90;;;;;;5011228;28;20117;-48
2023/05/24 00:52:33;;;;;;;15.32;4.85;;;9.90;99.90;;;;;;5011623;28;20549;-49
2023/05/24 00:55:19;;;;;;;15.32;4.88;;;9.90;99.90;;;;;;5014030;28;20144;-47
2023/05/24 00:58:05;;;;;;;18.73;5.18;;;9.70;99.90;;;;;;5013226;28;20495;-47
2023/05/24 01:00:55;;;;;;;11.60;5.15;;;9.70;99.90;;;;;;5013552;28;20030;-46
2023/05/24 01:03:42;;;;;;;13.85;5.22;;;9.80;99.90;;;;;;5012543;28;20092;-47
2023/05/24 01:06:28;;;;;;;20.30;5.95;;;9.80;99.90;;;;;;5012449;28;20479;-48
2023/05/24 01:09:59;;;;;;;19.33;5.40;;;9.80;99.90;;;;;;5012415;28;20030;-50
2023/05/24 01:12:55;;;;;;;15.25;4.95;;;9.70;99.90;;;;;;5012723;28;20402;-48
2023/05/24 01:15:53;;;;;;;14.48;5.63;;;9.70;99.90;;;;;;5012783;28;20494;-48
2023/05/24 01:18:58;;;;;;;24.27;6.53;;;9.60;99.90;;;;;;5013167;28;20410;-46
2023/05/24 01:21:58;;;;;;;14.73;5.60;;;9.70;99.90;;;;;;5013039;28;20029;-45
2023/05/24 01:24:54;;;;;;;20.63;5.50;;;9.50;99.90;;;;;;5013085;28;20109;-49
2023/05/24 01:27:42;;;;;;;21.10;5.78;;;9.40;99.90;;;;;;5013340;28;20029;-47
2023/05/24 01:30:28;;;;;;;20.85;5.47;;;9.30;99.90;;;;;;5013493;28;20041;-47
2023/05/24 01:33:14;;;;;;;17.02;5.63;;;9.40;99.90;;;;;;5013658;28;20018;-47
2023/05/24 01:36:00;;;;;;;17.20;5.40;;;9.20;99.90;;;;;;5011713;28;20109;-48
2023/05/24 01:38:47;;;;;;;13.88;5.20;;;9.40;99.90;;;;;;5011337;28;20034;-47
2023/05/24 01:41:55;;;;;;;15.50;4.90;;;9.60;99.90;;;;;;5013308;28;20486;-51
2023/05/24 01:44:57;;;;;;;17.35;5.72;;;9.60;99.90;;;;;;5011959;28;20027;-52
2023/05/24 01:48:18;;;;;;;17.63;5.57;;;9.50;99.90;;;;;;5012573;28;20029;-48
2023/05/24 01:51:10;;;;;;;21.25;5.68;;;9.50;99.90;;;;;;5013991;28;20105;-51
2023/05/24 01:53:58;;;;;;;24.08;6.10;;;9.40;99.90;;;;;;5022955;28;20045;-48
2023/05/24 01:56:46;;;;;;;16.60;5.40;;;9.20;99.90;;;;;;5020693;28;20044;-44
2023/05/24 01:59:33;;;;;;;11.77;4.25;;;9.30;99.90;;;;;;5016093;28;20041;-45
2023/05/24 02:02:19;;;;;;;20.58;6.47;;;9.30;99.90;;;;;;5014753;28;20030;-44
2023/05/24 02:05:06;;;;;;;19.15;5.25;;;9.40;99.90;;;;;;5012281;28;20148;-44
2023/05/24 02:07:52;;;;;;;29.05;6.13;;;9.50;99.90;;;;;;5011669;28;20068;-45
2023/05/24 02:10:41;;;;;;;20.85;5.25;;;9.50;99.90;;;;;;5011082;28;20026;-46
2023/05/24 02:13:27;;;;;;;20.50;5.60;;;9.40;99.90;;;;;;5010217;28;20064;-47
2023/05/24 02:16:13;;;;;;;20.30;6.13;;;9.30;99.90;;;;;;5012380;28;20022;-47
2023/05/24 02:18:59;;;;;;;17.90;5.32;;;9.20;99.90;;;;;;5011413;28;20022;-46
2023/05/24 02:21:47;;;;;;;22.95;6.15;;;9.20;99.90;;;;;;5010842;28;20026;-48
2023/05/24 02:24:36;;;;;;;21.70;6.50;;;9.20;99.90;;;;;;5012733;28;20033;-47
2023/05/24 02:27:22;;;;;;;17.95;5.35;;;9.30;99.90;;;;;;5012368;28;20033;-48
2023/05/24 02:30:11;;;;;;;22.75;6.55;;;9.30;99.90;;;;;;5010930;28;20069;-47
2023/05/24 02:32:57;;;;;;;17.33;6.45;;;9.40;99.90;;;;;;5012492;28;20030;-48
2023/05/24 02:35:43;;;;;;;18.08;5.55;;;9.30;99.90;;;;;;5011611;28;20509;-47
2023/05/24 02:38:30;;;;;;;18.95;6.53;;;9.20;99.90;;;;;;5010061;28;20040;-47
2023/05/24 02:41:17;;;;;;;16.90;6.28;;;9.30;99.90;;;;;;5012433;28;20499;-46
2023/05/24 02:44:03;;;;;;;13.93;5.55;;;9.30;99.90;;;;;;5012857;28;20410;-52
2023/05/24 02:46:49;;;;;;;20.05;6.07;;;9.10;99.90;;;;;;5011290;28;20109;-49
2023/05/24 02:49:35;;;;;;;17.25;6.85;;;9.10;99.90;;;;;;5012476;28;20552;-53
2023/05/24 02:52:22;;;;;;;21.13;6.65;;;9.20;99.90;;;;;;5011747;28;20026;-46
2023/05/24 02:55:08;;;;;;;17.33;6.35;;;9.10;99.90;;;;;;5010984;28;20018;-48
2023/05/24 02:57:55;;;;;;;16.58;6.32;;;9.20;99.90;;;;;;5012427;28;20033;-46
2023/05/24 03:00:41;;;;;;;22.67;5.75;;;9.10;99.90;;;;;;5012688;28;20044;-46
2023/05/24 03:03:26;;;;;;;20.05;5.88;;;9.20;99.90;;;;;;5011264;28;20026;-45
2023/05/24 03:06:13;;;;;;;20.70;5.63;;;9.20;99.90;;;;;;5011770;28;20506;-47
2023/05/24 03:08:59;;;;;;;20.13;6.40;;;9.30;99.90;;;;;;5011633;28;20045;-45
2023/05/24 03:11:44;;;;;;;16.77;6.07;;;9.30;99.90;;;;;;5011969;28;20032;-46
2023/05/24 03:14:30;;;;;;;23.25;6.50;;;9.30;99.90;;;;;;5010571;28;20401;-48
2023/05/24 03:17:16;;;;;;;24.48;7.15;;;9.20;99.90;;;;;;5010946;28;20037;-51
2023/05/24 03:20:04;;;;;;;22.77;6.55;;;9.00;99.90;;;;;;5010039;28;20434;-48
2023/05/24 03:22:50;;;;;;;14.95;5.63;;;9.10;99.90;;;;;;5012034;28;20083;-47
2023/05/24 03:25:36;;;;;;;20.90;7.57;;;9.20;99.90;;;;;;5010804;28;20030;-51
2023/05/24 03:28:23;;;;;;;22.35;7.03;;;9.10;99.90;;;;;;5011660;28;20030;-46
2023/05/24 03:31:09;;;;;;;24.83;6.60;;;9.20;99.90;;;;;;5011075;28;20029;-47
2023/05/24 03:33:55;;;;;;;20.80;7.65;;;9.20;99.90;;;;;;5009823;28;20397;-45
2023/05/24 03:36:42;;;;;;;20.67;6.55;;;9.00;99.90;;;;;;5011249;28;20395;-47
2023/05/24 03:39:27;;;;;;;21.60;6.25;;;9.00;99.90;;;;;;5011458;28;20026;-48
2023/05/24 03:42:13;;;;;;;20.63;6.47;;;8.90;99.90;;;;;;5010157;28;20030;-47
2023/05/24 03:44:59;;;;;;;24.13;5.97;;;8.90;99.90;;;;;;5010374;28;20106;-47
2023/05/24 03:47:45;;;;;;;15.93;6.43;;;9.10;99.90;;;;;;5009855;28;20030;-47
2023/05/24 03:50:31;;;;;;;29.45;7.75;;;9.20;99.90;;;;;;5010039;28;20034;-46
2023/05/24 03:53:17;;;;;;;25.60;6.15;;;9.20;99.90;;;;;;5013469;28;20073;-49
2023/05/24 03:56:03;;;;;;;26.38;8.30;;;9.10;99.90;;;;;;5013445;28;20478;-48
2023/05/24 03:58:51;;;;;;;18.02;6.30;;;9.10;99.90;;;;;;5013728;28;20117;-46
2023/05/24 04:01:37;;;;;;;23.95;7.10;;;9.20;99.90;;;;;;5014674;28;20030;-46
2023/05/24 04:04:23;;;;;;;16.05;6.78;;;9.30;99.90;;;;;;5013294;28;20570;-46
2023/05/24 04:07:10;;;;;;;31.00;8.63;;;9.30;99.90;;;;;;5013614;28;20025;-47
2023/05/24 04:09:56;;;;;;;26.73;7.63;;;9.20;99.90;;;;;;5014485;28;20030;-49
2023/05/24 04:12:44;;;;;;;21.05;7.63;;;9.20;99.90;;;;;;5013977;28;20105;-46
2023/05/24 04:15:30;;;;;;;18.35;6.43;;;9.20;99.90;;;;;;5014144;28;20105;-49
2023/05/24 04:18:16;;;;;;;24.35;7.18;;;9.30;99.90;;;;;;5013708;28;20041;-46
2023/05/24 04:21:02;;;;;;;21.23;6.72;;;9.20;99.90;;;;;;5012878;28;20560;-48
2023/05/24 04:23:48;;;;;;;23.60;7.57;;;9.10;99.90;;;;;;5012971;28;20034;-47
2023/05/24 04:26:36;;;;;;;25.00;7.20;;;9.20;99.90;;;;;;5012702;28;20109;-49
2023/05/24 04:29:25;;;;;;;25.27;7.55;;;9.20;99.90;;;;;;5014178;28;20602;-48
2023/05/24 04:32:13;;;;;;;28.83;6.97;;;9.40;99.90;;;;;;5014389;28;20186;-51
2023/05/24 04:35:01;;;;;;;26.67;7.85;;;9.50;99.90;;;;;;5013761;28;20073;-50
2023/05/24 04:37:48;;;;;;;30.08;8.13;;;9.40;99.90;;;;;;5013253;28;20501;-50
2023/05/24 04:40:35;;;;;;;23.05;7.07;;;9.40;99.90;;;;;;5013590;28;20088;-49
2023/05/24 04:43:21;;;;;;;21.52;6.53;;;9.50;99.90;;;;;;5013572;28;20026;-49
2023/05/24 04:46:07;;;;;;;25.42;7.18;;;9.40;99.90;;;;;;5014280;28;20022;-49
2023/05/24 04:48:53;;;;;;;25.48;6.75;;;9.30;99.90;;;;;;5012464;28;20061;-52
2023/05/24 04:51:39;;;;;;;28.10;7.90;;;9.40;99.90;;;;;;5011629;28;20030;-53
2023/05/24 04:54:25;;;;;;;26.15;8.18;;;9.30;99.90;;;;;;5012578;28;20022;-47
2023/05/24 04:57:11;;;;;;;23.35;7.18;;;9.30;99.90;;;;;;5011957;28;20072;-48
2023/05/24 04:59:57;;;;;;;21.70;6.63;;;9.60;99.90;;;;;;5014321;28;20037;-47
2023/05/24 05:02:43;;;;;;;24.52;6.65;;;9.60;99.90;;;;;;5012755;28;20077;-48
2023/05/24 05:05:30;;;;;;;23.10;7.70;;;9.60;99.90;;;;;;5013358;28;20037;-50
2023/05/24 05:08:15;;;;;;;27.27;7.32;;;9.60;99.90;;;;;;5011573;28;20034;-48
2023/05/24 05:11:02;;;;;;;25.33;7.93;;;9.50;99.90;;;;;;5012903;28;20109;-51
2023/05/24 05:13:48;;;;;;;24.77;7.22;;;9.70;99.90;;;;;;5013218;28;20018;-51
2023/05/24 05:16:35;;;;;;;27.20;7.45;;;9.60;99.90;;;;;;5012284;28;20394;-47
2023/05/24 05:19:21;;;;;;;19.55;6.70;;;9.60;99.90;;;;;;5013579;28;20457;-49
2023/05/24 05:22:06;;;;;;;24.35;7.05;;;9.80;99.90;;;;;;5011463;28;20030;-47
2023/05/24 05:24:52;;;;;;;22.92;7.10;;;9.90;99.90;;;;;;5012905;28;20092;-48
2023/05/24 05:27:38;;;;;;;27.50;7.32;;;9.80;99.90;;;;;;5011999;28;20026;-48
2023/05/24 05:30:24;;;;;;;27.25;7.03;;;10.00;99.90;;;;;;5011925;28;20033;-48
2023/05/24 05:33:10;;;;;;;22.77;8.30;;;10.10;99.90;;;;;;5011694;28;20030;-50
2023/05/24 05:35:56;;;;;;;20.55;6.68;;;10.20;99.90;;;;;;5012434;28;20392;-50
2023/05/24 05:38:42;;;;;;;23.50;7.32;;;10.30;99.80;;;;;;5011668;28;20395;-50
2023/05/24 05:41:28;;;;;;;22.30;7.38;;;10.30;99.90;;;;;;5011324;28;20046;-48
2023/05/24 05:44:14;;;;;;;24.85;7.63;;;10.20;99.70;;;;;;5011953;28;20030;-49
2023/05/24 05:47:00;;;;;;;21.58;7.10;;;10.00;99.90;;;;;;5011505;28;20033;-50
2023/05/24 05:49:46;;;;;;;21.85;7.75;;;10.10;99.90;;;;;;5012695;28;20105;-50
2023/05/24 05:52:32;;;;;;;19.58;7.22;;;10.10;99.90;;;;;;5011861;28;20088;-51
2023/05/24 05:55:18;;;;;;;22.50;6.68;;;10.40;99.50;;;;;;5012893;28;20541;-51
2023/05/24 05:58:04;;;;;;;24.60;7.93;;;10.40;99.70;;;;;;5010865;28;20065;-54
2023/05/24 06:00:50;;;;;;;27.85;7.22;;;10.40;99.50;;;;;;5011860;28;20022;-43
2023/05/24 06:03:36;;;;;;;25.90;7.43;;;10.30;99.30;;;;;;5010992;28;20049;-47
2023/05/24 06:06:22;;;;;;;24.73;6.28;;;10.40;99.50;;;;;;5010590;28;20104;-49
2023/05/24 06:09:08;;;;;;;29.17;7.97;;;10.50;99.30;;;;;;5011983;28;20049;-45
2023/05/24 06:11:54;;;;;;;19.77;6.40;;;10.50;99.00;;;;;;5010945;28;20053;-44
2023/05/24 06:14:40;;;;;;;20.05;7.07;;;10.50;99.40;;;;;;5009944;28;20052;-48
2023/05/24 06:17:26;;;;;;;20.13;6.68;;;10.60;99.10;;;;;;5010489;28;20023;-48
2023/05/24 06:20:14;;;;;;;21.67;7.45;;;10.50;99.60;;;;;;5011333;28;20030;-46
2023/05/24 06:23:00;;;;;;;22.70;7.75;;;10.40;99.60;;;;;;5011917;28;20030;-49
2023/05/24 06:25:46;;;;;;;29.77;8.25;;;10.50;99.90;;;;;;5012371;28;20110;-49
2023/05/24 06:28:32;;;;;;;20.50;7.38;;;10.70;99.90;;;;;;5012625;28;20088;-47
2023/05/24 06:31:18;;;;;;;22.90;6.82;;;11.00;99.20;;;;;;5011484;28;20037;-47
2023/05/24 06:34:04;;;;;;;22.17;6.35;;;11.30;98.90;;;;;;5011219;28;20018;-52
2023/05/24 06:36:51;;;;;;;28.83;8.38;;;11.40;98.70;;;;;;5010186;28;20032;-50
2023/05/24 06:39:37;;;;;;;23.00;7.65;;;11.20;98.90;;;;;;5011962;28;20112;-47
2023/05/24 06:42:23;;;;;;;23.85;7.82;;;11.00;98.50;;;;;;5011252;28;20434;-47
2023/05/24 06:45:10;;;;;;;20.55;6.97;;;10.80;98.60;;;;;;5010448;28;20026;-47
2023/05/24 06:47:56;;;;;;;19.95;7.25;;;10.80;99.10;;;;;;5010267;28;20029;-48
2023/05/24 06:50:43;;;;;;;21.00;6.60;;;10.90;98.90;;;;;;5011158;28;20109;-48
2023/05/24 06:53:29;;;;;;;21.90;8.45;;;10.90;98.50;;;;;;5011682;28;20514;-49
2023/05/24 06:56:15;;;;;;;27.85;8.30;;;10.90;98.70;;;;;;5011433;28;20026;-49
2023/05/24 06:59:01;;;;;;;23.90;7.82;;;11.20;97.90;;;;;;5010355;28;20404;-48
2023/05/24 07:01:50;;;;;;;27.83;7.65;;;11.50;97.90;;;;;;5010814;28;20026;-46
2023/05/24 07:04:36;;;;;;;21.30;7.60;;;11.50;97.60;;;;;;5011830;28;20026;-45
2023/05/24 07:07:22;;;;;;;24.25;7.22;;;11.60;97.60;;;;;;5010395;28;20559;-46
2023/05/24 07:10:09;;;;;;;25.60;8.45;;;11.40;97.70;;;;;;5010893;28;20521;-47
2023/05/24 07:12:55;;;;;;;27.15;7.18;;;11.30;97.70;;;;;;5011643;28;20029;-50
2023/05/24 07:15:41;;;;;;;21.83;7.28;;;11.30;97.70;;;;;;5010058;28;20045;-48
2023/05/24 07:18:28;;;;;;;24.58;7.72;;;11.40;97.60;;;;;;5000247;28;20084;-47
2023/05/24 07:21:14;;;;;;;27.00;8.80;;;11.60;97.60;;;;;;5006926;28;20030;-49
2023/05/24 07:24:02;;;;;;;17.63;6.75;;;11.50;97.80;;;;;;5010538;28;20034;-49
2023/05/24 07:26:50;;;;;;;25.25;7.30;;;11.60;97.40;;;;;;5014139;28;20025;-49
2023/05/24 07:29:36;;;;;;;27.27;8.13;;;11.60;97.50;;;;;;5015141;28;20446;-46
2023/05/24 07:32:22;;;;;;;28.58;7.10;;;11.90;97.40;;;;;;5014190;28;20506;-48
2023/05/24 07:35:11;;;;;;;20.60;6.95;;;12.00;97.30;;;;;;5013065;28;20037;-45
2023/05/24 07:37:57;;;;;;;18.02;6.40;;;12.10;97.20;;;;;;5016224;28;20014;-47
2023/05/24 07:40:43;;;;;;;19.27;6.88;;;12.10;96.90;;;;;;5015126;28;20498;-45
2023/05/24 07:43:29;;;;;;;23.73;7.38;;;12.20;96.40;;;;;;5014554;28;20030;-48
2023/05/24 07:46:15;;;;;;;23.77;7.32;;;12.10;96.70;;;;;;5014630;28;20030;-46
2023/05/24 07:49:01;;;;;;;21.70;7.75;;;12.10;97.10;;;;;;5018000;28;20057;-46
2023/05/24 07:51:48;;;;;;;28.40;7.88;;;12.00;97.10;;;;;;4998361;28;20034;-46
2023/05/24 07:54:34;;;;;;;26.15;8.13;;;11.80;97.60;;;;;;4997933;28;20034;-45
2023/05/24 07:57:19;;;;;;;35.45;8.35;;;11.80;97.40;;;;;;5014391;28;20033;-52
2023/05/24 08:00:13;;;;;;;30.92;8.75;;;12.00;97.70;;;;;;5014001;28;20121;-51
2023/05/24 08:02:59;;;;;;;24.40;7.72;;;12.00;97.80;;;;;;4994055;28;20041;-49
2023/05/24 08:05:45;;;;;;;33.28;8.10;;;12.00;97.40;;;;;;4993772;28;20503;-52
2023/05/24 08:08:31;;;;;;;27.08;8.98;;;11.90;97.20;;;;;;5008130;28;20418;-48
2023/05/24 08:11:17;;;;;;;30.92;9.73;;;11.80;97.70;;;;;;5020898;28;20554;-49
2023/05/24 08:14:03;;;;;;;26.13;8.90;;;11.80;97.80;;;;;;5023938;28;20115;-47
2023/05/24 08:16:48;;;;;;;16.83;6.93;;;11.80;97.70;;;;;;5010421;28;20018;-46
2023/05/24 08:19:35;;;;;;;22.25;7.90;;;12.10;97.80;;;;;;5022159;28;20695;-45
2023/05/24 08:22:21;;;;;;;20.00;8.10;;;12.20;96.70;;;;;;5014099;28;20564;-46
2023/05/24 08:25:07;;;;;;;22.80;8.43;;;12.20;96.70;;;;;;5013376;28;20045;-46
2023/05/24 08:27:54;;;;;;;26.63;9.07;;;12.20;97.20;;;;;;4999572;28;20041;-48
2023/05/24 08:30:40;;;;;;;29.02;8.50;;;12.10;97.80;;;;;;5014810;28;20403;-51
2023/05/24 08:33:27;;;;;;;27.52;7.93;;;12.30;97.70;;;;;;5013278;28;20022;-51
2023/05/24 08:36:13;;;;;;;21.65;7.13;;;12.30;97.40;;;;;;4998020;28;20030;-48
2023/05/24 08:38:59;;;;;;;34.47;8.88;;;12.40;97.20;;;;;;5015817;28;20034;-49
2023/05/24 08:41:45;;;;;;;23.83;7.93;;;12.50;96.80;;;;;;5013378;28;20448;-50
2023/05/24 08:44:40;;;;;;;27.05;7.68;;;12.60;97.00;;;;;;5013193;28;20034;-45
2023/05/24 08:47:27;;;;;;;24.38;7.95;;;12.50;97.40;;;;;;5012453;28;20079;-51
2023/05/24 08:50:14;;;;;;;24.67;8.32;;;12.70;97.10;;;;;;5011224;28;20483;-52
2023/05/24 08:53:03;;;;;;;23.05;7.57;;;12.90;96.60;;;;;;5006780;28;20116;-49
2023/05/24 08:55:53;;;;;;;18.13;7.43;;;12.70;96.50;;;;;;5013251;28;20025;-52
2023/05/24 08:58:39;;;;;;;25.30;7.88;;;12.70;96.90;;;;;;5012322;28;20078;-50
2023/05/24 09:01:26;;;;;;;25.30;8.93;;;12.70;97.00;;;;;;5012037;28;20576;-52
2023/05/24 09:04:13;;;;;;;21.00;7.82;;;12.60;97.10;;;;;;5013523;28;20112;-50
2023/05/24 09:07:00;;;;;;;28.92;8.65;;;12.60;97.20;;;;;;5012558;28;20057;-50
2023/05/24 09:09:52;;;;;;;24.33;7.90;;;12.70;97.10;;;;;;5013070;28;20106;-51
2023/05/24 09:12:39;;;;;;;24.23;8.45;;;12.70;96.60;;;;;;5013099;28;20411;-50
2023/05/24 09:15:26;;;;;;;27.33;8.75;;;12.60;97.00;;;;;;5013724;28;20030;-51
2023/05/24 09:18:11;;;;;;;25.08;9.05;;;12.50;97.60;;;;;;5012312;28;20034;-53
2023/05/24 09:20:58;;;;;;;26.80;8.57;;;12.50;97.40;;;;;;5013101;28;20510;-51
2023/05/24 09:23:44;;;;;;;30.27;8.70;;;12.40;97.30;;;;;;5012275;28;20474;-49
2023/05/24 09:26:30;;;;;;;29.63;8.32;;;12.30;97.30;;;;;;5012924;28;20512;-50
2023/05/24 09:29:21;;;;;;;25.80;8.57;;;12.20;97.50;;;;;;5012514;28;20386;-51
2023/05/24 09:32:07;;;;;;;25.08;8.05;;;12.20;98.10;;;;;;5012682;28;20371;-49
2023/05/24 09:34:56;;;;;;;24.05;7.85;;;12.30;97.90;;;;;;5011603;28;20026;-47
2023/05/24 09:37:45;;;;;;;30.27;9.00;;;12.40;97.70;;;;;;5012761;28;20018;-47
2023/05/24 09:40:32;;;;;;;24.50;8.40;;;12.20;98.10;;;;;;5013124;28;20029;-48
2023/05/24 09:43:18;;;;;;;27.70;8.65;;;12.40;97.90;;;;;;5012376;28;20033;-50
2023/05/24 09:46:04;;;;;;;25.25;8.07;;;12.40;97.90;;;;;;5011842;28;20030;-48
2023/05/24 09:49:02;;;;;;;22.63;9.05;;;12.50;97.90;;;;;;5012316;28;20038;-48
2023/05/24 09:51:48;;;;;;;23.10;8.23;;;12.40;97.90;;;;;;5010975;28;20022;-51
2023/05/24 09:54:35;;;;;;;31.00;9.60;;;12.50;97.50;;;;;;5012402;28;20089;-47
2023/05/24 09:57:21;;;;;;;28.50;8.50;;;12.50;97.50;;;;;;5012332;28;20506;-50
2023/05/24 10:00:15;;;;;;;22.45;7.75;;;12.60;97.10;;;;;;5012119;28;20037;-50
2023/05/24 10:03:03;;;;;;;20.67;7.75;;;12.70;96.70;;;;;;5012106;28;20026;-50
2023/05/24 10:05:52;;;;;;;25.42;7.90;;;13.00;96.80;;;;;;5011494;28;20398;-49
2023/05/24 10:08:38;;;;;;;29.25;8.98;;;13.10;96.70;;;;;;5011271;28;20057;-49
2023/05/24 10:11:25;;;;;;;23.75;7.93;;;13.40;96.20;;;;;;5012052;28;20060;-53
2023/05/24 10:14:11;;;;;;;27.40;8.82;;;13.50;96.20;;;;;;5010506;28;20510;-47
2023/05/24 10:16:58;;;;;;;22.08;7.70;;;13.60;96.10;;;;;;4995397;28;20038;-46
2023/05/24 10:19:45;;;;;;;30.38;8.32;;;13.50;96.00;;;;;;5008818;28;20029;-48
2023/05/24 10:22:34;;;;;;;19.77;6.97;;;13.70;95.90;;;;;;5012198;28;20106;-48
2023/05/24 10:25:24;;;;;;;18.60;7.00;;;14.10;94.90;;;;;;5012382;28;20065;-49
2023/05/24 10:28:13;;;;;;;19.23;7.28;;;13.80;94.10;;;;;;5010756;28;20030;-48
2023/05/24 10:31:16;;;;;;;17.17;6.10;;;13.80;94.60;;;;;;5013484;28;20034;-47
2023/05/24 10:34:05;;;;;;;19.60;6.70;;;13.90;93.50;;;;;;5012432;28;20048;-47
2023/05/24 10:36:51;;;;;;;22.73;7.22;;;13.50;94.50;;;;;;4992975;28;20045;-49
2023/05/24 10:39:37;;;;;;;23.55;7.55;;;13.40;94.70;;;;;;4993417;28;20092;-48
2023/05/24 10:42:23;;;;;;;22.20;7.43;;;13.20;95.00;;;;;;4993072;28;20031;-49
2023/05/24 10:45:34;;;;;;;29.10;7.70;;;13.20;95.40;;;;;;4997147;28;20041;-46
2023/05/24 10:48:23;;;;;;;19.92;8.15;;;13.30;95.40;;;;;;5012208;28;20049;-51
2023/05/24 10:51:34;;;;;;;24.30;7.32;;;13.20;95.70;;;;;;5012278;28;20080;-46
2023/05/24 10:54:25;;;;;;;28.35;9.25;;;13.20;95.80;;;;;;5012851;28;20105;-48
2023/05/24 10:57:11;;;;;;;20.38;8.20;;;13.10;96.10;;;;;;5011806;28;20056;-47
2023/05/24 11:00:17;;;;;;;20.52;9.23;;;13.00;96.30;;;;;;5013138;28;20044;-49
2023/05/24 11:03:09;;;;;;;24.83;9.13;;;13.00;96.40;;;;;;4997179;28;20057;-48
2023/05/24 11:05:55;;;;;;;27.55;8.85;;;13.10;96.80;;;;;;5015540;28;20033;-47
2023/05/24 11:08:45;;;;;;;20.58;9.20;;;13.30;96.60;;;;;;5007562;28;20025;-49
2023/05/24 11:11:31;;;;;;;20.60;9.32;;;13.40;96.50;;;;;;5015223;28;20030;-49
2023/05/24 11:14:19;;;;;;;28.52;10.30;;;13.40;97.00;;;;;;5015052;28;20029;-49
2023/05/24 11:17:06;;;;;;;28.60;10.20;;;13.50;96.40;;;;;;5015541;28;20076;-48
2023/05/24 11:19:53;;;;;;;25.33;9.65;;;13.60;97.20;;;;;;5007168;28;20057;-48
2023/05/24 11:22:40;;;;;;;27.40;9.45;;;13.80;95.90;;;;;;5015245;28;20502;-48
2023/05/24 11:25:27;;;;;;;24.02;9.10;;;13.70;96.00;;;;;;5016411;28;20443;-47
2023/05/24 11:28:13;;;;;;;27.25;9.52;;;13.70;95.40;;;;;;5015500;28;20061;-49
2023/05/24 11:31:08;;;;;;;21.90;9.27;;;13.80;95.70;;;;;;5015379;28;20371;-49
2023/05/24 11:33:54;;;;;;;19.88;8.50;;;13.90;94.80;;;;;;5014907;28;20548;-46
2023/05/24 11:36:40;;;;;;;22.00;8.18;;;14.00;95.00;;;;;;5014230;28;20499;-46
2023/05/24 11:39:34;;;;;;;25.80;8.00;;;13.80;94.20;;;;;;5014533;28;20049;-46
2023/05/24 11:42:22;;;;;;;20.17;8.10;;;14.10;94.20;;;;;;5000309;28;20525;-49
2023/05/24 11:45:09;;;;;;;23.33;8.05;;;14.20;94.40;;;;;;5014971;28;20033;-45
2023/05/24 11:47:55;;;;;;;19.17;7.60;;;14.50;94.00;;;;;;5014431;28;20030;-50
2023/05/24 11:50:42;;;;;;;16.80;7.90;;;14.80;93.80;;;;;;5014495;28;20041;-45
2023/05/24 11:53:29;;;;;;;21.30;8.55;;;15.10;93.70;;;;;;5015108;28;20022;-47
2023/05/24 11:56:15;;;;;;;17.08;7.88;;;15.30;93.10;;;;;;5015410;28;20137;-45
2023/05/24 11:59:20;;;;;;;20.35;7.85;;;15.50;92.40;;;;;;5014267;28;20129;-45
2023/05/24 12:02:07;;;;;;;24.45;8.80;;;15.50;92.20;;;;;;5015124;28;20084;-46
2023/05/24 12:04:54;;;;;;;19.65;7.97;;;15.60;92.00;;;;;;4996273;28;20042;-47
2023/05/24 12:07:40;;;;;;;18.73;8.38;;;15.60;91.80;;;;;;4995452;28;20169;-46
2023/05/24 12:10:26;;;;;;;19.67;9.27;;;15.30;91.40;;;;;;4995351;28;20108;-45
2023/05/24 12:13:22;;;;;;;14.95;7.70;;;15.40;91.50;;;;;;4993239;28;20030;-47
2023/05/24 12:16:11;;;;;;;17.00;6.90;;;15.60;90.90;;;;;;4996264;28;20113;-51
2023/05/24 12:18:58;;;;;;;16.88;7.05;;;16.00;90.60;;;;;;5000936;28;20053;-44
2023/05/24 12:21:45;;;;;;;16.27;7.32;;;15.90;90.50;;;;;;5014726;28;20034;-45
2023/05/24 12:24:32;;;;;;;17.25;6.65;;;15.30;90.90;;;;;;5017834;28;20030;-45
2023/05/24 12:27:18;;;;;;;14.07;7.05;;;15.10;90.60;;;;;;5015720;28;20068;-46
2023/05/24 12:30:08;;;;;;;16.73;7.20;;;15.10;90.50;;;;;;5014121;28;20117;-48
2023/05/24 12:32:56;;;;;;;17.98;6.70;;;15.20;90.70;;;;;;5015365;28;20029;-52
2023/05/24 12:35:42;;;;;;;17.08;7.88;;;15.60;91.10;;;;;;4994638;28;20030;-47
2023/05/24 12:38:30;;;;;;;17.15;6.93;;;15.60;90.90;;;;;;5005188;28;20566;-48
2023/05/24 12:41:16;;;;;;;16.17;7.20;;;15.50;91.30;;;;;;5014048;28;20536;-47
2023/05/24 12:44:02;;;;;;;15.43;7.00;;;15.20;91.20;;;;;;5013206;28;20030;-47
2023/05/24 12:46:48;;;;;;;18.38;6.43;;;15.10;91.40;;;;;;5011935;28;20026;-49
2023/05/24 12:49:34;;;;;;;15.65;6.97;;;15.20;91.20;;;;;;5013469;28;20033;-49
2023/05/24 12:52:20;;;;;;;16.90;6.57;;;15.30;91.50;;;;;;4994178;28;20026;-52
2023/05/24 12:55:07;;;;;;;14.93;6.38;;;15.40;90.90;;;;;;4995103;28;20026;-50
2023/05/24 12:57:54;;;;;;;11.32;5.55;;;15.70;90.80;;;;;;4994159;28;20030;-50
2023/05/24 13:00:43;;;;;;;14.80;6.13;;;15.80;90.60;;;;;;5001223;28;20088;-50
2023/05/24 13:03:29;;;;;;;14.32;5.82;;;15.60;90.70;;;;;;5013370;28;20045;-50
2023/05/24 13:06:15;;;;;;;14.88;5.88;;;15.30;91.20;;;;;;5012450;28;20113;-50
2023/05/24 13:09:01;;;;;;;14.35;6.00;;;15.40;91.50;;;;;;5013467;28;20026;-52
2023/05/24 13:11:47;;;;;;;17.08;5.85;;;15.90;90.80;;;;;;5013372;28;20037;-49
2023/05/24 13:14:33;;;;;;;15.77;5.80;;;16.30;90.20;;;;;;5001701;28;20034;-50
2023/05/24 13:17:19;;;;;;;12.98;5.05;;;16.30;88.30;;;;;;5013296;28;20433;-46
2023/05/24 13:20:06;;;;;;;14.48;5.20;;;16.30;88.70;;;;;;5014286;28;20449;-46
2023/05/24 13:22:52;;;;;;;20.38;6.10;;;16.50;89.00;;;;;;5012808;28;20026;-49
2023/05/24 13:25:38;;;;;;;10.88;4.55;;;16.80;89.20;;;;;;5013432;28;20026;-47
2023/05/24 13:28:25;;;;;;;7.55;4.28;;;16.90;86.00;;;;;;5012721;28;20108;-46
2023/05/24 13:31:14;;;;;;;7.85;4.70;;;16.90;84.80;;;;;;5013319;28;20107;-51
2023/05/24 13:34:00;;;;;;;10.77;4.97;;;16.40;87.20;;;;;;5013662;28;20026;-46
2023/05/24 13:36:46;;;;;;;13.35;5.10;;;16.40;87.20;;;;;;5012620;28;20653;-46
2023/05/24 13:39:34;;;;;;;11.63;5.28;;;16.10;88.80;;;;;;5014573;28;20111;-47
2023/05/24 13:42:20;;;;;;;9.93;4.63;;;16.00;88.00;;;;;;5012670;28;20041;-45
2023/05/24 13:45:07;;;;;;;13.43;5.10;;;16.20;88.90;;;;;;5014210;28;20034;-45
2023/05/24 13:47:57;;;;;;;12.05;4.68;;;16.50;88.40;;;;;;5014277;28;20030;-49
2023/05/24 13:50:43;;;;;;;6.85;3.80;;;16.80;87.10;;;;;;5014241;28;20041;-46
2023/05/24 13:53:29;;;;;;;9.80;4.57;;;16.60;87.00;;;;;;5012439;28;20029;-47
2023/05/24 13:56:18;;;;;;;8.25;3.70;;;16.30;87.90;;;;;;5012436;28;20034;-48
2023/05/24 13:59:05;;;;;;;7.20;3.83;;;16.20;88.30;;;;;;5012174;28;20041;-46
2023/05/24 14:01:51;;;;;;;8.43;4.30;;;16.10;88.80;;;;;;5012307;28;20368;-48
2023/05/24 14:04:37;;;;;;;7.93;3.95;;;16.20;89.10;;;;;;5014848;28;20208;-49
2023/05/24 14:07:23;;;;;;;10.77;4.85;;;16.40;89.30;;;;;;5010096;28;20034;-48
2023/05/24 14:10:11;;;;;;;9.25;4.05;;;16.70;89.00;;;;;;5011431;28;20391;-49
2023/05/24 14:12:57;;;;;;;11.20;5.80;;;17.10;86.40;;;;;;5012384;28;20064;-47
2023/05/24 14:15:45;;;;;;;10.20;4.38;;;17.10;85.80;;;;;;5010427;28;20030;-47
2023/05/24 14:18:34;;;;;;;13.20;3.85;;;16.90;86.10;;;;;;5001926;28;20107;-50
2023/05/24 14:21:21;;;;;;;7.43;4.05;;;16.70;86.60;;;;;;5011671;28;20038;-49
2023/05/24 14:24:08;;;;;;;7.78;3.90;;;16.70;86.90;;;;;;5011676;28;20470;-51
2023/05/24 14:26:54;;;;;;;10.02;4.18;;;16.70;87.40;;;;;;5007780;28;20046;-47